createdAt,value
2022-08-23T00:03:00.934Z,1.88
2022-08-23T00:08:07.647Z,1.92
2022-08-23T00:13:10.430Z,1.90
2022-08-23T00:18:14.338Z,1.88
2022-08-23T00:23:18.678Z,1.63
2022-08-23T00:28:21.451Z,1.88
2022-08-23T00:33:24.344Z,1.77
2022-08-23T00:38:34.357Z,2.15
2022-08-23T00:44:00.096Z,2.05
2022-08-23T00:54:11.161Z,2.37
2022-08-23T00:59:13.954Z,2.28
2022-08-23T01:04:17.791Z,3.50
2022-08-23T01:09:23.237Z,3.00
2022-08-23T01:14:30.971Z,3.30
2022-08-23T01:19:37.214Z,1.90
2022-08-23T01:25:07.451Z,2.17
2022-08-23T01:30:06.905Z,2.08
2022-08-23T01:35:10.432Z,2.97
2022-08-23T01:40:16.165Z,3.08
2022-08-23T01:45:19.305Z,2.70
2022-08-23T01:50:22.419Z,3.20
2022-08-23T01:55:26.977Z,2.53
2022-08-23T02:00:35.558Z,2.30
2022-08-23T02:05:38.980Z,2.95
2022-08-23T02:10:43.464Z,2.20
2022-08-23T02:15:46.904Z,2.38
2022-08-23T02:20:51.431Z,2.35
2022-08-23T02:25:56.582Z,2.33
2022-08-23T02:30:59.388Z,2.08
2022-08-23T02:36:02.915Z,1.98
2022-08-23T02:41:07.094Z,2.40
2022-08-23T02:46:09.989Z,2.07
2022-08-23T02:51:12.778Z,2.25
2022-08-23T02:56:21.887Z,2.25
2022-08-23T03:01:27.254Z,2.53
2022-08-23T03:06:30.157Z,2.60
2022-08-23T03:11:34.973Z,2.35
2022-08-23T03:16:37.850Z,2.38
2022-08-23T03:21:40.712Z,2.55
2022-08-23T03:26:47.677Z,2.80
2022-08-23T03:31:51.579Z,2.30
2022-08-23T03:36:57.302Z,2.33
2022-08-23T03:42:01.459Z,2.17
2022-08-23T03:47:05.925Z,2.20
2022-08-23T03:52:09.376Z,2.13
2022-08-23T03:57:13.547Z,2.53
2022-08-23T04:02:16.528Z,2.80
2022-08-23T04:07:20.817Z,2.50
2022-08-23T04:12:24.998Z,2.37
2022-08-23T04:17:32.164Z,2.70
2022-08-23T04:22:35.416Z,2.75
2022-08-23T04:27:39.586Z,3.05
2022-08-23T04:32:42.397Z,2.70
2022-08-23T04:37:46.386Z,2.13
2022-08-23T04:42:50.564Z,2.40
2022-08-23T04:47:53.345Z,2.40
2022-08-23T04:52:56.145Z,2.80
2022-08-23T04:58:00.447Z,2.72
2022-08-23T05:03:03.325Z,2.70
2022-08-23T05:08:06.161Z,2.95
2022-08-23T05:13:10.380Z,2.55
2022-08-23T05:18:13.535Z,3.10
2022-08-23T05:23:16.628Z,3.25
2022-08-23T05:28:23.286Z,2.55
2022-08-23T05:33:26.353Z,2.55
2022-08-23T05:38:29.486Z,2.80
2022-08-23T05:43:34.158Z,2.88
2022-08-23T05:48:37.985Z,2.90
2022-08-23T05:53:44.463Z,2.95
2022-08-23T05:58:50.166Z,3.05
2022-08-23T06:03:53.337Z,3.08
2022-08-23T06:08:56.125Z,2.90
2022-08-23T06:14:03.194Z,2.92
2022-08-23T06:19:06.973Z,2.90
2022-08-23T06:24:10.764Z,2.53
2022-08-23T06:29:17.526Z,3.00
2022-08-23T06:34:24.305Z,3.08
2022-08-23T06:39:29.514Z,2.95
2022-08-23T06:44:35.515Z,2.65
2022-08-23T06:49:38.316Z,3.00
2022-08-23T06:54:41.110Z,2.78
2022-08-23T06:59:45.282Z,3.00
2022-08-23T07:04:53.754Z,2.70
2022-08-23T07:09:56.561Z,3.78
2022-08-23T07:15:00.681Z,2.42
2022-08-23T07:20:03.703Z,2.93
2022-08-23T07:25:06.874Z,2.80
2022-08-23T07:30:12.021Z,3.10
2022-08-23T07:35:14.817Z,2.90
2022-08-23T07:40:20.626Z,2.88
2022-08-23T07:45:25.149Z,2.95
2022-08-23T07:50:30.605Z,3.00
2022-08-23T07:55:33.521Z,2.50
2022-08-23T08:00:38.120Z,2.47
2022-08-23T08:10:44.885Z,2.60
2022-08-23T08:15:49.104Z,2.77
2022-08-23T08:20:51.935Z,2.55
2022-08-23T08:26:02.263Z,2.97
2022-08-23T08:31:07.145Z,2.58
2022-08-23T08:36:28.132Z,2.70
2022-08-23T08:42:03.915Z,3.03
2022-08-23T08:47:18.416Z,3.20
2022-08-23T08:52:26.194Z,3.20
2022-08-23T08:57:38.550Z,2.67
2022-08-23T09:02:45.068Z,2.55
2022-08-23T09:07:58.651Z,2.90
2022-08-23T09:13:18.063Z,2.70
2022-08-23T09:18:24.471Z,3.00
2022-08-23T09:23:32.292Z,2.65
2022-08-23T09:28:37.623Z,3.03
2022-08-23T09:33:43.625Z,2.90
2022-08-23T09:38:53.631Z,3.38
2022-08-23T09:43:58.964Z,3.40
2022-08-23T09:49:24.064Z,2.88
2022-08-23T09:54:31.990Z,2.90
2022-08-23T09:59:41.372Z,2.63
2022-08-23T10:04:59.841Z,2.50
2022-08-23T10:10:16.981Z,3.05
2022-08-23T10:15:20.172Z,3.17
2022-08-23T10:20:36.143Z,2.60
2022-08-23T10:25:43.533Z,2.80
2022-08-23T10:30:54.985Z,3.05
2022-08-23T10:36:07.257Z,2.78
2022-08-23T10:41:23.170Z,2.60
2022-08-23T10:46:30.617Z,2.72
2022-08-23T10:51:40.370Z,2.83
2022-08-23T10:56:48.832Z,2.53
2022-08-23T11:01:59.996Z,2.85
2022-08-23T11:07:17.013Z,2.60
2022-08-23T11:12:32.088Z,2.42
2022-08-23T11:17:44.605Z,2.67
2022-08-23T11:23:14.798Z,2.53
2022-08-23T11:28:43.882Z,2.20
2022-08-23T11:33:49.771Z,2.30
2022-08-23T11:39:07.942Z,2.50
2022-08-23T11:44:24.642Z,2.67
2022-08-23T11:49:57.776Z,2.10
2022-08-23T11:55:24.409Z,2.10
2022-08-23T12:00:34.473Z,2.60
2022-08-23T12:06:10.150Z,2.30
2022-08-23T12:11:18.762Z,2.28
2022-08-23T12:16:49.623Z,2.15
2022-08-23T12:21:55.775Z,2.25
2022-08-23T12:27:09.784Z,2.25
2022-08-23T12:32:20.483Z,1.92
2022-08-23T12:37:33.737Z,2.22
2022-08-23T12:42:40.008Z,2.20
2022-08-23T12:47:45.505Z,2.30
2022-08-23T12:52:59.331Z,2.28
2022-08-23T12:58:04.354Z,1.92
2022-08-23T13:03:16.408Z,2.00
2022-08-23T13:08:33.560Z,1.95
2022-08-23T13:13:41.477Z,2.00
2022-08-23T13:18:45.878Z,2.00
2022-08-23T13:23:49.063Z,2.15
2022-08-23T13:29:04.901Z,2.10
2022-08-23T13:34:07.674Z,2.20
2022-08-23T13:39:10.561Z,2.10
2022-08-23T13:44:19.031Z,1.93
2022-08-23T13:49:27.242Z,2.10
2022-08-23T13:54:31.461Z,1.88
2022-08-23T13:59:38.697Z,2.00
2022-08-23T14:04:41.935Z,1.80
2022-08-23T14:09:45.120Z,2.20
2022-08-23T14:14:50.172Z,2.00
2022-08-23T14:20:32.924Z,1.85
2022-08-23T14:25:16.171Z,1.70
2022-08-23T14:30:30.842Z,1.90
2022-08-23T14:35:33.717Z,1.75
2022-08-23T14:50:44.713Z,1.65
2022-08-23T14:56:01.152Z,1.45
2022-08-23T15:01:14.503Z,1.65
2022-08-23T15:06:19.041Z,1.58
2022-08-23T15:16:46.342Z,1.80
2022-08-23T15:21:49.170Z,1.65
2022-08-23T15:26:53.553Z,1.70
2022-08-23T15:31:57.712Z,1.65
2022-08-23T15:37:01.059Z,2.25
2022-08-23T15:42:03.877Z,1.50
2022-08-23T15:47:19.281Z,1.50
2022-08-23T15:52:22.079Z,1.60
2022-08-23T15:57:28.607Z,1.65
2022-08-23T16:02:50.974Z,1.80
2022-08-23T16:07:57.817Z,1.80
2022-08-23T16:13:03.707Z,1.45
2022-08-23T16:18:08.323Z,1.40
2022-08-23T16:23:11.570Z,1.50
2022-08-23T16:28:14.385Z,1.33
2022-08-23T16:33:18.602Z,1.40
2022-08-23T16:38:21.397Z,1.27
2022-08-23T16:43:24.237Z,1.70
2022-08-23T16:48:28.463Z,3.67
2022-08-23T16:53:32.410Z,1.77
2022-08-23T16:58:36.652Z,1.63
2022-08-23T17:03:40.980Z,1.40
2022-08-23T17:08:43.804Z,6.22
2022-08-23T17:13:47.433Z,1.70
2022-08-23T17:18:56.947Z,1.60
2022-08-23T17:23:59.838Z,1.20
2022-08-23T17:34:08.838Z,1.60
2022-08-23T17:39:14.520Z,1.60
2022-08-23T17:44:17.724Z,1.60
2022-08-23T17:49:22.019Z,1.90
2022-08-23T17:54:24.809Z,1.48
2022-08-23T17:59:28.725Z,1.60
2022-08-23T18:09:38.993Z,2.03
2022-08-23T18:14:46.801Z,1.70
2022-08-23T18:19:50.944Z,1.63
2022-08-23T18:24:54.125Z,2.00
2022-08-23T18:29:56.934Z,1.60
2022-08-23T18:35:01.114Z,1.77
2022-08-23T18:40:09.053Z,1.50
2022-08-23T18:45:13.850Z,1.95
2022-08-23T18:50:19.419Z,1.70
2022-08-23T18:55:22.222Z,1.90
2022-08-23T19:00:24.985Z,1.80
2022-08-23T19:05:29.441Z,1.85
2022-08-23T19:10:45.575Z,1.92
2022-08-23T19:15:49.356Z,2.10
2022-08-23T19:20:53.536Z,1.92
2022-08-23T19:25:56.657Z,1.83
2022-08-23T19:30:59.455Z,1.90
2022-08-23T19:36:04.290Z,2.10
2022-08-23T19:41:07.187Z,2.00
2022-08-23T19:46:15.915Z,1.77
2022-08-23T19:51:23.173Z,1.80
2022-08-23T19:56:26.162Z,1.83
2022-08-23T20:01:30.044Z,2.35
2022-08-23T20:06:34.390Z,1.67
2022-08-23T20:11:37.171Z,1.60
2022-08-23T20:16:42.222Z,1.90
2022-08-23T20:21:46.608Z,1.70
2022-08-23T20:26:50.938Z,1.70
2022-08-23T20:31:56.704Z,1.77
2022-08-23T20:37:01.277Z,1.70
2022-08-23T20:42:04.350Z,2.10
2022-08-23T20:47:11.271Z,1.88
2022-08-23T20:52:16.647Z,1.70
2022-08-23T20:57:19.490Z,1.63
2022-08-23T21:02:22.305Z,1.40
2022-08-23T21:07:27.983Z,1.80
2022-08-23T21:12:30.874Z,1.63
2022-08-23T21:17:33.644Z,1.92
2022-08-23T21:22:37.793Z,1.50
2022-08-23T21:27:40.699Z,1.60
2022-08-23T21:32:43.444Z,1.98
2022-08-23T21:37:47.594Z,1.40
2022-08-23T21:42:50.392Z,1.20
2022-08-23T21:47:53.227Z,1.60
2022-08-23T21:52:57.433Z,1.38
2022-08-23T21:58:00.477Z,1.60
2022-08-23T22:03:03.620Z,1.67
2022-08-23T22:08:08.068Z,1.30
2022-08-23T22:18:13.506Z,1.73
2022-08-23T22:23:17.662Z,1.40
2022-08-23T22:28:20.456Z,1.77
2022-08-23T22:33:23.242Z,1.58
2022-08-23T22:38:27.428Z,1.48
2022-08-23T22:43:30.226Z,1.40
2022-08-23T22:48:35.473Z,1.70
2022-08-23T22:53:44.310Z,1.63
2022-08-23T22:58:47.842Z,1.30
2022-08-23T23:03:54.052Z,1.35
2022-08-23T23:08:58.382Z,1.63
2022-08-23T23:19:21.275Z,1.50
2022-08-23T23:24:27.942Z,1.80
2022-08-23T23:29:32.073Z,1.73
2022-08-23T23:34:34.933Z,2.28
2022-08-23T23:39:39.123Z,1.73
2022-08-23T23:44:41.890Z,1.80
2022-08-23T23:49:45.019Z,1.75
2022-08-23T23:54:49.198Z,2.10
2022-08-23T23:59:53.871Z,1.60
